Track груздева елизавета

Time Latitude Longitude Accuracy (66% radius in meters) Altitude (meters) Speed (km/hour) Bearing (degrees) Battery (%) GPS flag
11:46:15 59.914243 29.779235 8 30.1 13.908298492432 98.480003356934 4 1 delete
11:46:14 59.914280 29.778972 9 30.3 13.934007644653 98.540000915527 4 1 delete
11:46:13 59.914298 29.778652 9 30.7 14.057408332825 100.79000091553 4 1 delete
11:46:11 59.914300 29.778117 8 31.5 13.281010627747 114.45999908447 4 1 delete
11:46:10 59.914308 29.777913 9 31.9 12.232104301453 122.73999786377 4 1 delete
11:46:09 59.914367 29.777735 9 31.9 12.381213188171 126.01999664307 4 1 delete
11:46:08 59.914423 29.777550 8 31.7 13.054776191711 128.41999816895 4 1 delete
11:46:07 59.914498 29.777362 8 31.7 12.84396648407 130.50999450684 4 1 delete
11:46:06 59.914588 29.777140 9 31.7 12.777124404907 131.0299987793 4 1 delete
11:46:05 59.914662 29.776958 9 31.5 12.201253890991 126.84999847412 4 1 delete
11:46:04 59.914743 29.776857 9 31.3 12.782266616821 120.44000244141 4 1 delete
11:46:03 59.914828 29.776667 9 31.3 12.586881637573 116.26000213623 4 1 delete
11:46:02 59.914902 29.776480 9 31.3 12.684574127197 112.2799987793 4 1 delete
11:46:01 59.914948 29.776282 9 31.3 12.802832603455 108.48999786377 4 1 delete
11:45:59 59.915015 29.775905 9 31.1 12.622873306274 102.34999847412 4 1 delete
11:45:58 59.915052 29.775682 9 30.9 12.638298988342 100.54000091553 4 1 delete
11:45:57 59.915077 29.775460 9 30.8 12.43263053894 99.720001220703 4 1 delete
11:45:56 59.915100 29.775243 10 30.7 12.098420143127 98.779998779297 4 1 delete
11:45:55 59.915120 29.775025 10 30.6 11.733359336853 98.680000305176 4 1 delete
11:45:53 59.915157 29.774597 9 30.6 11.044371604919 97.139999389648 4 1 delete
11:45:52 59.915178 29.774370 9 30.9 11.121496200562 95.76000213623 4 1 delete
11:45:50 59.915223 29.774012 9 31.5 13.152468681335 96.580001831055 4 1 delete
11:45:49 59.915242 29.773802 9 31.8 14.011132240295 96.199996948242 4 1 delete
11:45:47 59.915270 29.773298 9 31.8 14.36591053009 96.120002746582 4 1 delete
11:45:46 59.915283 29.773005 9 31.8 14.304209709167 95.809997558594 4 1 delete
11:45:45 59.915297 29.772748 9 31.7 13.625505447388 95.26000213623 4 1 delete
11:45:44 59.915308 29.772507 11 31.6 12.972508430481 95.73999786377 4 1 delete
11:45:43 59.915315 29.772257 9 31.5 12.828541755676 95.809997558594 4 1 delete
11:45:42 59.915322 29.771988 9 31.3 12.7565574646 94.680000305176 4 1 delete
11:45:41 59.915327 29.771773 9 31.3 12.196111679077 94.330001831055 4 1 delete
11:45:40 59.915332 29.771577 8 31.2 11.537975311279 93.540000915527 4 1 delete
11:45:38 59.915345 29.771240 8 30.7 9.4298782348633 92.720001220703 4 1 delete
11:45:36 59.915353 29.770927 9 29.7 6.0517811775208 90.639999389648 4 1 delete
11:45:34 59.915358 29.770558 9 28.6 3.3163964748383 88.129997253418 4 1 delete
11:45:31 59.915355 29.770472 9 28.7 0 100.61000061035 4 1 delete
11:45:20 59.915345 29.770398 9 29.6 3.6197566986084 102.2200012207 4 1 delete
11:45:19 59.915350 29.770335 8 29.9 4.8023476600647 101.56999969482 4 1 delete
11:45:17 59.915367 29.770113 8 30.2 6.4476919174194 103.11000061035 4 1 delete
11:45:15 59.915388 29.769845 12 30.9 8.7768821716309 102.30999755859 4 1 delete
11:45:13 59.915413 29.769528 9 31.5 11.414574623108 101.38999938965 4 1 delete
11:45:11 59.915447 29.769125 9 32.2 12.962224960327 99.779998779297 4 1 delete
11:45:10 59.915462 29.768885 11 32.6 13.095909118652 98.870002746582 4 1 delete
11:45:09 59.915475 29.768642 8 32.8 12.874816894531 98.209999084473 4 1 delete
11:45:08 59.915485 29.768408 11 33 13.039351463318 99.099998474121 4 1 delete
11:45:07 59.915497 29.768157 11 32.9 13.368419647217 99.01000213623 4 1 delete
11:45:06 59.915507 29.767887 10 32.8 13.224452018738 97.809997558594 4 1 delete
11:45:05 59.915508 29.767652 25.125 32.6 12.93651676178 96.099998474121 4 1 delete
11:45:04 59.915510 29.767422 8 32.6 12.000727653503 96.129997253418 4 1 delete
11:45:03 59.915513 29.767222 8 32.6 11.383723258972 95.839996337891 4 1 delete
11:45:01 59.915527 29.766890 8 32.2 9.244776725769 96.040000915527 4 1 delete